EUR weather

Eurong Heliport
Eurong Ranger's Station, Queensland, Australia

Public forecast

Using degrees Celsius for public forecast. Weather courtesy of forecast.io.

METAR (pilot weather report)

Closest report is Bundaberg Airport, 56.9 nm (105.4 km) NW. Retrieved 2019/04/19 03:00 UTC (59 minutes ago):

YBUD 190300Z AUTO 14019KT 9999 -DZ BKN038 BKN050 OVC084 25/19 Q1018

TAF (pilot weather forecast)

Forecast is more than 12 hours old.

Closest forecast is Brisbane International Airport, 112.8 nm (209.0 km) S. Retrieved 2019/04/18 00:00 UTC (1 day ago):

TAF YBBN 182306Z 1900/2006 13014KT 9999 -SHRA SCT025 BKN040 FM191200 17009KT 9999 -SHRA FEW015 BKN025 OVC040 FM200000 12014KT 9999 -SHRA SCT025 BKN040 INTER 1900/2006 3000 SHRA BKN012